Time;durP1;ratioP1;P1;durP2;ratioP2;P2;SDS_P1;SDS_P2;PMS_P1;PMS_P2;Temp;Humidity;BMP_temperature;BMP_pressure;BME280_temperature;BME280_humidity;BME280_pressure;Samples;Min_cycle;Max_cycle;Signal;HPM_P1;HPM_P2
2024/01/27 00:02:03;;;;;;;11.37;5.37;;;;;;;6.35;100.00;102746.63;6193393;28;20233;-73
2024/01/27 00:05:24;;;;;;;14.37;6.10;;;;;;;6.37;100.00;102759.00;6204266;28;20674;-70
2024/01/27 00:08:45;;;;;;;15.20;5.30;;;;;;;6.30;100.00;102748.63;6196078;28;20315;-72
2024/01/27 00:12:07;;;;;;;9.90;4.73;;;;;;;6.31;100.00;102761.06;6202222;28;20251;-71
2024/01/27 00:15:29;;;;;;;11.70;5.27;;;;;;;6.45;100.00;102751.53;6185354;28;20318;-71
2024/01/27 00:18:50;;;;;;;11.13;5.17;;;;;;;6.43;100.00;102752.53;6209276;28;20838;-71
2024/01/27 00:22:11;;;;;;;12.23;5.43;;;;;;;6.32;100.00;102747.59;6202209;28;20320;-71
2024/01/27 00:25:32;;;;;;;14.63;5.23;;;;;;;6.31;100.00;102750.34;6198643;28;20228;-71
2024/01/27 00:28:53;;;;;;;11.43;5.07;;;;;;;6.32;100.00;102752.97;6208454;28;20226;-71
2024/01/27 00:32:15;;;;;;;17.87;5.77;;;;;;;6.43;100.00;102753.41;6186325;28;20228;-71
2024/01/27 00:35:36;;;;;;;12.30;6.07;;;;;;;6.40;100.00;102750.84;6197004;28;20244;-71
2024/01/27 00:38:57;;;;;;;11.47;4.93;;;;;;;6.37;100.00;102748.31;6210188;28;20229;-70
2024/01/27 00:42:23;;;;;;;21.93;7.43;;;;;;;6.37;100.00;102761.69;6199595;28;20241;-72
2024/01/27 00:45:44;;;;;;;16.87;6.43;;;;;;;6.41;100.00;102762.44;6194082;28;20650;-71
2024/01/27 00:49:06;;;;;;;17.43;7.17;;;;;;;6.46;100.00;102771.16;6197318;28;20241;-70
2024/01/27 00:52:27;;;;;;;20.17;6.30;;;;;;;6.49;100.00;102762.13;6204362;28;20563;-72
2024/01/27 00:55:50;;;;;;;14.87;5.03;;;;;;;6.52;100.00;102772.69;6198616;28;20257;-71
2024/01/27 00:59:11;;;;;;;10.03;5.77;;;;;;;6.48;100.00;102777.31;6195905;28;20228;-71
2024/01/27 01:02:32;;;;;;;13.17;5.13;;;;;;;6.55;100.00;102780.63;6178143;28;20820;-71
2024/01/27 01:05:54;;;;;;;18.57;6.23;;;;;;;6.52;100.00;102781.63;6201125;28;20598;-71
2024/01/27 01:09:15;;;;;;;14.47;6.20;;;;;;;6.56;100.00;102793.06;6207472;28;20244;-70
2024/01/27 01:12:36;;;;;;;14.73;5.80;;;;;;;6.53;100.00;102787.84;6193770;28;20264;-72
2024/01/27 01:15:57;;;;;;;10.17;5.00;;;;;;;6.55;100.00;102799.38;6195358;28;20315;-71
2024/01/27 01:19:18;;;;;;;11.87;4.33;;;;;;;6.56;100.00;102796.63;6181205;28;20233;-71
2024/01/27 01:22:40;;;;;;;19.33;5.70;;;;;;;6.59;100.00;102799.19;6202151;28;20503;-71
2024/01/27 01:26:01;;;;;;;20.27;5.57;;;;;;;6.60;100.00;102802.72;6202351;28;20221;-71
2024/01/27 01:29:23;;;;;;;13.47;6.23;;;;;;;6.60;100.00;102806.28;6205350;28;20238;-72
2024/01/27 01:32:44;;;;;;;21.20;6.60;;;;;;;6.45;100.00;102807.78;6194991;28;20225;-70
2024/01/27 01:36:05;;;;;;;21.87;6.57;;;;;;;6.51;100.00;102827.22;6199313;28;20230;-71
2024/01/27 01:39:27;;;;;;;20.23;6.60;;;;;;;6.47;100.00;102819.31;6207363;28;20236;-72
2024/01/27 01:42:51;;;;;;;17.80;5.03;;;;;;;6.61;100.00;102823.25;6200764;28;20252;-72
2024/01/27 01:46:12;;;;;;;14.50;5.87;;;;;;;6.62;100.00;102843.72;6192866;28;20513;-71
2024/01/27 01:49:34;;;;;;;20.07;6.27;;;;;;;6.54;100.00;102849.41;6205995;28;20233;-71
2024/01/27 01:52:56;;;;;;;11.53;5.73;;;;;;;6.47;100.00;102847.06;6207787;28;20237;-71
2024/01/27 01:56:18;;;;;;;12.80;5.73;;;;;;;6.61;100.00;102867.00;6191348;28;20236;-71
2024/01/27 01:59:40;;;;;;;14.23;5.70;;;;;;;6.42;100.00;102866.81;6206330;28;20225;-71
2024/01/27 02:03:01;;;;;;;12.93;5.60;;;;;;;6.45;100.00;102871.19;6196449;28;20233;-70
2024/01/27 02:06:22;;;;;;;19.27;5.23;;;;;;;6.47;100.00;102869.31;6183503;28;20232;-72
2024/01/27 02:09:44;;;;;;;12.67;4.53;;;;;;;6.53;100.00;102874.44;6206560;28;20931;-71
2024/01/27 02:13:17;;;;;;;15.83;6.30;;;;;;;6.57;100.00;102877.88;6202312;28;20229;-71
2024/01/27 02:16:38;;;;;;;7.10;4.20;;;;;;;6.59;100.00;102876.03;6200327;28;20239;-71
2024/01/27 02:20:00;;;;;;;18.53;5.93;;;;;;;6.55;100.00;102883.28;6204860;28;20225;-71
2024/01/27 02:23:21;;;;;;;24.10;6.67;;;;;;;6.61;100.00;102888.44;6206417;28;20229;-71
2024/01/27 02:26:43;;;;;;;13.73;4.33;;;;;;;6.54;100.00;102878.88;6209583;28;20843;-71
2024/01/27 02:30:07;;;;;;;21.43;5.77;;;;;;;6.59;100.00;102895.66;6200778;28;20318;-72
2024/01/27 02:33:28;;;;;;;18.17;5.07;;;;;;;6.68;100.00;102889.03;6210937;28;20576;-71
2024/01/27 02:36:49;;;;;;;18.77;5.37;;;;;;;6.59;100.00;102892.09;6194906;28;20240;-71
2024/01/27 02:40:11;;;;;;;14.07;6.57;;;;;;;6.47;100.00;102897.94;6200203;28;22065;-70
2024/01/27 02:43:33;;;;;;;14.37;4.67;;;;;;;6.56;100.00;102908.28;6195189;28;20232;-71
2024/01/27 02:46:54;;;;;;;16.00;5.53;;;;;;;6.49;100.00;102896.94;6190546;28;20236;-71
2024/01/27 02:50:16;;;;;;;19.20;6.90;;;;;;;6.38;100.00;102892.00;6197866;28;20225;-71
2024/01/27 02:53:36;;;;;;;15.03;6.47;;;;;;;6.28;100.00;102901.31;6206189;28;20554;-72
2024/01/27 02:56:57;;;;;;;13.77;6.23;;;;;;;6.35;100.00;102910.88;6203774;28;20225;-71
2024/01/27 03:00:20;;;;;;;8.97;4.37;;;;;;;6.42;100.00;102909.69;6167832;28;20233;-71
2024/01/27 03:03:41;;;;;;;12.00;4.97;;;;;;;6.51;100.00;102908.44;6197215;28;20265;-71
2024/01/27 03:07:02;;;;;;;10.37;4.67;;;;;;;6.30;100.00;102910.16;6193481;28;20308;-71
2024/01/27 03:10:23;;;;;;;15.53;6.87;;;;;;;6.22;100.00;102912.28;6197173;28;20233;-70
2024/01/27 03:13:45;;;;;;;14.80;5.00;;;;;;;6.27;100.00;102926.38;6201181;28;20327;-70
2024/01/27 03:17:07;;;;;;;10.30;4.97;;;;;;;6.33;100.00;102930.59;6178965;28;20599;-70
2024/01/27 03:20:30;;;;;;;10.47;4.97;;;;;;;6.30;100.00;102923.56;6200815;28;20233;-70
2024/01/27 03:23:51;;;;;;;13.33;5.57;;;;;;;6.16;100.00;102931.25;6204713;28;20245;-70
2024/01/27 03:27:12;;;;;;;11.47;6.13;;;;;;;6.16;100.00;102941.06;6204812;28;20652;-70
2024/01/27 03:30:34;;;;;;;15.40;6.03;;;;;;;6.20;100.00;102935.56;6196197;28;20472;-71
2024/01/27 03:33:56;;;;;;;22.47;5.93;;;;;;;6.25;100.00;102954.13;6195355;28;20292;-69
2024/01/27 03:37:17;;;;;;;17.63;6.67;;;;;;;6.19;100.00;102940.97;6207894;28;20606;-70
2024/01/27 03:40:38;;;;;;;14.70;5.10;;;;;;;6.13;100.00;102942.06;6205421;28;20237;-70
2024/01/27 03:43:59;;;;;;;17.10;5.97;;;;;;;6.23;100.00;102945.28;6195073;28;20237;-70
2024/01/27 03:47:21;;;;;;;21.90;5.57;;;;;;;6.16;100.00;102946.44;6202733;28;20316;-70
2024/01/27 03:50:43;;;;;;;11.77;5.53;;;;;;;6.00;100.00;102948.81;6202638;28;20225;-70
2024/01/27 03:54:04;;;;;;;17.47;6.50;;;;;;;5.97;100.00;102946.25;6204606;28;20237;-70
2024/01/27 03:57:25;;;;;;;20.03;6.17;;;;;;;5.96;100.00;102962.38;6206126;28;20828;-71
2024/01/27 04:00:46;;;;;;;10.87;4.63;;;;;;;5.88;100.00;102959.97;6196531;28;20225;-71
2024/01/27 04:04:07;;;;;;;16.67;5.87;;;;;;;5.92;100.00;102964.28;6206499;28;20241;-70
2024/01/27 04:07:29;;;;;;;18.10;6.43;;;;;;;5.88;100.00;102973.38;6199545;28;20631;-70
2024/01/27 04:10:50;;;;;;;15.33;4.93;;;;;;;5.81;100.00;102973.59;6203615;28;20856;-70
2024/01/27 04:14:11;;;;;;;18.33;6.50;;;;;;;5.92;100.00;102979.47;6207375;28;20229;-70
2024/01/27 04:17:32;;;;;;;15.87;6.03;;;;;;;5.88;100.00;102973.38;6195383;28;20237;-69
2024/01/27 04:20:53;;;;;;;21.43;5.47;;;;;;;5.83;100.00;102969.94;6189075;28;20229;-69
2024/01/27 04:24:15;;;;;;;15.80;5.87;;;;;;;5.74;100.00;102978.28;6206587;28;20958;-70
2024/01/27 04:27:39;;;;;;;14.97;5.87;;;;;;;5.70;100.00;102979.31;6203910;28;20233;-69
2024/01/27 04:30:59;;;;;;;11.77;4.80;;;;;;;5.82;100.00;102989.56;6192207;28;20619;-69
2024/01/27 04:34:21;;;;;;;11.57;5.77;;;;;;;5.60;100.00;102989.47;6203366;28;20587;-69
2024/01/27 04:37:44;;;;;;;14.47;5.40;;;;;;;5.60;100.00;102988.59;6196755;28;20619;-69
2024/01/27 04:41:06;;;;;;;22.00;5.60;;;;;;;5.48;100.00;102997.91;6199634;28;20228;-70
2024/01/27 04:44:27;;;;;;;21.83;6.97;;;;;;;5.54;100.00;103008.41;6216602;28;20315;-69
2024/01/27 04:47:48;;;;;;;7.83;4.53;;;;;;;5.39;100.00;103002.69;6198611;28;20228;-70
2024/01/27 04:51:09;;;;;;;26.03;8.97;;;;;;;5.61;100.00;103007.25;6198203;28;20694;-70
2024/01/27 04:54:30;;;;;;;24.43;7.73;;;;;;;5.65;100.00;103008.88;6211323;28;20233;-69
2024/01/27 04:57:53;;;;;;;24.37;8.93;;;;;;;5.38;100.00;103006.28;6183527;28;20554;-70
2024/01/27 05:01:14;;;;;;;18.90;6.07;;;;;;;5.51;100.00;102999.59;6196148;28;20225;-69
2024/01/27 05:04:35;;;;;;;11.23;5.30;;;;;;;5.57;100.00;103005.59;6210545;28;20233;-69
2024/01/27 05:07:55;;;;;;;15.93;6.50;;;;;;;5.37;100.00;103005.41;6198952;28;20264;-70
2024/01/27 05:11:17;;;;;;;15.93;6.90;;;;;;;5.40;100.00;103007.97;6198935;28;20225;-70
2024/01/27 05:14:44;;;;;;;29.67;7.50;;;;;;;5.31;100.00;103008.28;6211256;28;20232;-70
2024/01/27 05:18:05;;;;;;;17.00;6.70;;;;;;;5.31;100.00;103010.09;6201734;28;20230;-71
2024/01/27 05:21:26;;;;;;;11.17;5.70;;;;;;;5.23;100.00;103023.72;6204346;28;20320;-70
2024/01/27 05:24:47;;;;;;;13.10;7.17;;;;;;;5.10;100.00;103011.66;6204672;28;20241;-71
2024/01/27 05:28:08;;;;;;;14.63;5.27;;;;;;;5.11;100.00;103009.88;6208145;28;20232;-71
2024/01/27 05:31:31;;;;;;;13.60;6.13;;;;;;;5.11;100.00;103020.56;6194008;28;20228;-71
2024/01/27 05:34:52;;;;;;;14.30;5.33;;;;;;;5.02;100.00;103016.38;6206207;28;20225;-71
2024/01/27 05:38:13;;;;;;;19.00;6.53;;;;;;;4.96;100.00;103031.72;6204717;28;20230;-71
2024/01/27 05:41:34;;;;;;;14.37;6.10;;;;;;;4.95;100.00;103030.84;6199131;28;20256;-71
2024/01/27 05:44:55;;;;;;;20.93;6.37;;;;;;;4.92;100.00;103033.63;6212875;28;20264;-70
2024/01/27 05:48:18;;;;;;;23.03;4.97;;;;;;;4.90;100.00;103045.28;6204470;28;20229;-70
2024/01/27 05:51:39;;;;;;;11.97;5.90;;;;;;;4.92;100.00;103048.78;6199763;28;20233;-70
2024/01/27 05:55:00;;;;;;;9.67;5.00;;;;;;;4.87;100.00;103046.22;6214324;28;20697;-70
2024/01/27 05:58:21;;;;;;;11.23;4.87;;;;;;;4.84;100.00;103055.22;6199704;28;20699;-70
2024/01/27 06:01:44;;;;;;;16.10;5.47;;;;;;;4.83;100.00;103045.47;6193811;28;20225;-69
2024/01/27 06:05:08;;;;;;;14.77;6.73;;;;;;;4.81;100.00;103044.63;6204226;28;20662;-70
2024/01/27 06:08:29;;;;;;;14.23;7.00;;;;;;;4.83;100.00;103058.81;6205641;28;20822;-71
2024/01/27 06:11:50;;;;;;;8.10;4.67;;;;;;;4.86;100.00;103066.72;6192949;28;20515;-70
2024/01/27 06:15:11;;;;;;;12.07;5.57;;;;;;;4.89;100.00;103073.78;6192511;28;20319;-70
2024/01/27 06:18:32;;;;;;;20.53;8.03;;;;;;;4.78;100.00;103079.44;6202239;28;20721;-70
2024/01/27 06:21:55;;;;;;;13.00;4.93;;;;;;;4.76;100.00;103088.41;6196269;28;20232;-70
2024/01/27 06:25:16;;;;;;;17.23;5.87;;;;;;;4.68;100.00;103085.97;6205015;28;20237;-70
2024/01/27 06:28:37;;;;;;;11.53;5.53;;;;;;;4.63;100.00;103087.91;6204800;28;20221;-70
2024/01/27 06:31:58;;;;;;;10.90;5.00;;;;;;;4.64;100.00;103080.75;6190919;28;20222;-71
2024/01/27 06:35:19;;;;;;;18.07;6.77;;;;;;;4.60;100.00;103087.13;6172939;28;20241;-70
2024/01/27 06:38:42;;;;;;;17.80;5.50;;;;;;;4.63;100.00;103084.38;6209423;28;20237;-71
2024/01/27 06:42:02;;;;;;;8.67;5.43;;;;;;;4.58;100.00;103088.97;6188000;28;20234;-71
2024/01/27 06:45:23;;;;;;;16.87;6.37;;;;;;;4.53;100.00;103097.09;6193842;28;20287;-71
2024/01/27 06:48:44;;;;;;;17.20;8.13;;;;;;;4.65;100.00;103098.56;6202566;28;20315;-70
2024/01/27 06:52:05;;;;;;;11.30;5.37;;;;;;;4.39;100.00;103112.63;6190683;28;20233;-71
2024/01/27 06:55:28;;;;;;;10.40;5.67;;;;;;;4.44;100.00;103121.41;6205873;28;20680;-71
2024/01/27 06:58:49;;;;;;;14.13;5.57;;;;;;;4.33;100.00;103122.59;6203029;28;20237;-71
2024/01/27 07:02:13;;;;;;;16.77;5.70;;;;;;;4.32;100.00;103118.19;6188644;28;20237;-71
2024/01/27 07:05:38;;;;;;;15.57;5.63;;;;;;;4.36;100.00;103127.88;6199874;28;20224;-70
2024/01/27 07:08:59;;;;;;;11.70;5.63;;;;;;;4.31;100.00;103130.66;6206362;28;20234;-70
2024/01/27 07:12:21;;;;;;;13.47;5.87;;;;;;;4.29;100.00;103135.16;6195478;28;20351;-70
2024/01/27 07:15:42;;;;;;;10.87;4.93;;;;;;;4.29;100.00;103148.50;6204130;28;20241;-69
2024/01/27 07:19:03;;;;;;;10.37;6.70;;;;;;;4.26;100.00;103145.91;6212418;28;20225;-70
2024/01/27 07:22:24;;;;;;;12.17;6.33;;;;;;;4.22;100.00;103151.34;6204245;28;20607;-71
2024/01/27 07:25:45;;;;;;;11.23;5.53;;;;;;;4.28;100.00;103144.06;6199577;28;20226;-71
2024/01/27 07:29:07;;;;;;;15.20;5.97;;;;;;;4.27;100.00;103144.13;6208173;28;20232;-70
2024/01/27 07:32:28;;;;;;;14.43;5.53;;;;;;;4.33;100.00;103147.50;6202166;28;20249;-70
2024/01/27 07:35:50;;;;;;;10.47;5.53;;;;;;;4.20;100.00;103153.19;6196639;28;20276;-70
2024/01/27 07:39:11;;;;;;;15.70;5.83;;;;;;;4.19;100.00;103163.00;6194756;28;20229;-71
2024/01/27 07:42:32;;;;;;;12.13;4.97;;;;;;;4.20;100.00;103164.75;6199918;28;20220;-69
2024/01/27 07:45:54;;;;;;;6.97;3.97;;;;;;;4.29;100.00;103177.88;6201587;28;20260;-71
2024/01/27 07:49:15;;;;;;;10.57;4.63;;;;;;;4.24;100.00;103189.56;6207218;28;20244;-71
2024/01/27 07:52:36;;;;;;;17.23;5.57;;;;;;;4.36;100.00;103179.44;6201509;28;20225;-70
2024/01/27 07:55:57;;;;;;;20.67;6.50;;;;;;;4.24;100.00;103186.91;6200320;28;20723;-69
2024/01/27 07:59:18;;;;;;;19.57;6.17;;;;;;;4.40;100.00;103177.59;6212049;28;20240;-71
2024/01/27 08:02:40;;;;;;;15.87;5.53;;;;;;;4.30;100.00;103178.75;6186439;28;20277;-70
2024/01/27 08:06:05;;;;;;;11.67;5.00;;;;;;;4.20;100.00;103175.44;6193668;28;20745;-70
2024/01/27 08:09:26;;;;;;;7.37;4.97;;;;;;;4.22;100.00;103175.38;6195776;28;20249;-70
2024/01/27 08:12:47;;;;;;;7.70;4.30;;;;;;;4.27;100.00;103170.81;6204216;28;20602;-71
2024/01/27 08:16:12;;;;;;;17.47;4.70;;;;;;;4.44;100.00;103179.25;6185766;28;20233;-71
2024/01/27 08:19:34;;;;;;;11.00;5.87;;;;;;;4.53;100.00;103190.56;6208592;28;20303;-72
2024/01/27 08:22:55;;;;;;;10.63;4.80;;;;;;;4.33;100.00;103202.69;6199356;28;20229;-70
2024/01/27 08:26:16;;;;;;;10.67;5.93;;;;;;;4.42;100.00;103210.47;6203697;28;20237;-71
2024/01/27 08:29:37;;;;;;;12.13;4.70;;;;;;;4.39;100.00;103210.53;6197094;28;20253;-71
2024/01/27 08:32:58;;;;;;;11.90;4.10;;;;;;;4.42;100.00;103194.44;6196697;28;20256;-71
2024/01/27 08:36:20;;;;;;;11.07;4.77;;;;;;;4.52;100.00;103196.84;6203375;28;20568;-70
2024/01/27 08:39:41;;;;;;;10.67;5.27;;;;;;;4.67;100.00;103195.56;6198318;28;20264;-72
2024/01/27 08:43:02;;;;;;;17.83;6.40;;;;;;;5.03;100.00;103196.34;6202173;28;20549;-71
2024/01/27 08:46:23;;;;;;;15.07;5.33;;;;;;;6.59;100.00;103189.53;6198310;28;20225;-71
2024/01/27 08:49:44;;;;;;;10.20;3.57;;;;;;;7.78;100.00;103203.75;6202737;28;20941;-72
2024/01/27 08:53:06;;;;;;;12.37;3.57;;;;;;;8.25;100.00;103204.50;6198847;28;20339;-71
2024/01/27 08:56:27;;;;;;;11.43;3.73;;;;;;;8.58;100.00;103205.78;6205745;28;20319;-70
2024/01/27 08:59:48;;;;;;;12.77;5.10;;;;;;;9.03;100.00;103206.47;6199039;28;20340;-70
2024/01/27 09:03:09;;;;;;;18.63;4.80;;;;;;;9.06;100.00;103203.63;6198405;28;20236;-69
2024/01/27 09:06:30;;;;;;;19.13;6.27;;;;;;;9.65;100.00;103196.34;6188606;28;20237;-71
2024/01/27 09:09:52;;;;;;;9.20;3.97;;;;;;;9.94;100.00;103200.31;6214130;28;20233;-70
2024/01/27 09:13:13;;;;;;;6.50;3.37;;;;;;;10.12;100.00;103204.81;6198553;28;22185;-71
2024/01/27 09:16:35;;;;;;;7.80;4.60;;;;;;;11.51;100.00;103192.00;6192872;28;20232;-70
2024/01/27 09:19:56;;;;;;;7.93;4.07;;;;;;;9.95;100.00;103202.03;6204103;28;20241;-69
2024/01/27 09:23:16;;;;;;;7.17;3.97;;;;;;;10.76;100.00;103199.72;6199039;28;20259;-71
2024/01/27 09:26:39;;;;;;;6.57;3.23;;;;;;;10.80;100.00;103212.09;6191479;28;20611;-71
2024/01/27 09:30:00;;;;;;;12.87;4.37;;;;;;;10.66;100.00;103200.28;6210219;28;20541;-71
2024/01/27 09:33:22;;;;;;;9.83;4.27;;;;;;;11.24;100.00;103207.88;6206352;28;20516;-71
2024/01/27 09:36:43;;;;;;;9.13;3.70;;;;;;;12.91;100.00;103190.06;6203155;28;20383;-72
2024/01/27 09:40:06;;;;;;;7.10;4.38;;;;;;;12.72;100.00;103203.84;6203665;28;20225;-71
2024/01/27 09:43:30;;;;;;;7.80;3.95;;;;;;;13.42;100.00;103205.78;6202138;28;20783;-70
2024/01/27 09:46:50;;;;;;;11.70;3.88;;;;;;;13.87;100.00;103202.78;6197047;28;20249;-71
2024/01/27 09:50:12;;;;;;;9.73;2.85;;;;;;;14.06;100.00;103202.47;6209621;28;20222;-71
2024/01/27 09:53:33;;;;;;;10.38;3.20;;;;;;;14.75;100.00;103189.56;6204786;28;20233;-70
2024/01/27 09:56:56;;;;;;;8.55;3.53;;;;;;;13.93;100.00;103213.28;6202099;28;20268;-69
2024/01/27 10:00:20;;;;;;;15.18;5.45;;;;;;;14.75;100.00;103199.59;6203598;28;20241;-71
2024/01/27 10:03:43;;;;;;;6.68;3.40;;;;;;;14.88;100.00;103192.28;6206249;28;20226;-71
2024/01/27 10:07:04;;;;;;;6.95;3.40;;;;;;;15.73;94.73;103215.09;6202152;28;20225;-70
2024/01/27 10:10:24;;;;;;;10.95;4.18;;;;;;;14.73;96.97;103202.38;6191643;28;20295;-70
2024/01/27 10:13:45;;;;;;;9.88;4.43;;;;;;;15.40;92.98;103220.25;6201199;28;20229;-70
2024/01/27 10:17:10;;;;;;;6.82;2.53;;;;;;;16.27;88.88;103221.00;6193975;28;20237;-70
2024/01/27 10:20:31;;;;;;;10.25;4.63;;;;;;;16.40;88.50;103216.38;6208039;28;20566;-72
2024/01/27 10:23:52;;;;;;;10.43;2.97;;;;;;;18.56;88.56;103208.84;6208337;28;20245;-70
2024/01/27 10:27:13;;;;;;;8.93;4.32;;;;;;;17.13;82.88;103214.31;6191196;28;20303;-70
2024/01/27 10:30:33;;;;;;;6.28;3.28;;;;;;;17.81;81.25;103206.06;6202680;28;20294;-70
2024/01/27 10:33:57;;;;;;;6.90;3.30;;;;;;;17.25;74.58;103220.66;6198593;28;20232;-70
2024/01/27 10:37:25;;;;;;;11.27;3.55;;;;;;;17.47;82.21;103220.66;6195732;28;20316;-70
2024/01/27 10:40:46;;;;;;;8.27;3.53;;;;;;;15.11;80.73;103216.00;6185339;28;20631;-69
2024/01/27 10:44:08;;;;;;;11.07;3.97;;;;;;;14.73;91.31;103218.66;6207055;28;20225;-70
2024/01/27 10:47:30;;;;;;;9.80;3.42;;;;;;;16.02;89.38;103221.09;6192680;28;20233;-69
2024/01/27 10:50:53;;;;;;;11.50;4.43;;;;;;;14.91;80.93;103216.53;6202731;28;20634;-69
2024/01/27 10:54:19;;;;;;;9.32;3.60;;;;;;;14.63;87.98;103205.84;6198238;28;20603;-70
2024/01/27 10:57:41;;;;;;;7.97;3.22;;;;;;;15.74;79.25;103210.53;6200945;28;20229;-69
2024/01/27 11:01:04;;;;;;;8.20;3.53;;;;;;;14.93;86.38;103211.88;6191138;28;20232;-68
2024/01/27 11:04:26;;;;;;;9.00;4.20;;;;;;;16.11;81.68;103214.13;6207610;28;20249;-70
2024/01/27 11:07:49;;;;;;;6.88;3.22;;;;;;;13.88;88.79;103209.97;6193037;28;20240;-68
2024/01/27 11:11:10;;;;;;;14.15;4.30;;;;;;;13.21;97.14;103226.06;6191498;28;20568;-69
2024/01/27 11:14:30;;;;;;;7.03;3.58;;;;;;;15.43;85.42;103208.31;6214582;28;20225;-70
2024/01/27 11:17:51;;;;;;;8.90;3.60;;;;;;;17.99;80.30;103204.53;6192766;28;20233;-70
2024/01/27 11:21:14;;;;;;;8.68;4.10;;;;;;;15.75;75.19;103220.47;6188315;28;20245;-69
2024/01/27 11:24:36;;;;;;;8.80;4.03;;;;;;;14.04;90.68;103226.97;6200535;28;20295;-68
2024/01/27 11:27:57;;;;;;;10.15;4.15;;;;;;;15.84;82.99;103220.63;6202117;28;20841;-69
2024/01/27 11:31:20;;;;;;;7.60;3.97;;;;;;;16.41;79.48;103231.75;6187698;28;20237;-70
2024/01/27 11:34:44;;;;;;;4.82;2.70;;;;;;;15.70;80.77;103222.63;6203075;28;20240;-69
2024/01/27 11:38:06;;;;;;;13.35;3.30;;;;;;;16.73;73.82;103235.63;6209956;28;20328;-69
2024/01/27 11:41:30;;;;;;;9.63;3.80;;;;;;;17.83;70.56;103244.13;6204968;28;20563;-69
2024/01/27 11:44:51;;;;;;;8.48;3.53;;;;;;;16.64;72.87;103236.34;6212659;28;20501;-69
2024/01/27 11:48:12;;;;;;;8.40;3.30;;;;;;;14.61;80.45;103237.66;6205757;28;20229;-68
2024/01/27 11:51:33;;;;;;;11.32;5.50;;;;;;;16.28;80.58;103239.09;6198821;28;20248;-68
2024/01/27 11:54:55;;;;;;;4.53;2.92;;;;;;;16.68;73.94;103245.16;6217184;28;20566;-69
2024/01/27 11:58:18;;;;;;;6.00;3.03;;;;;;;16.08;69.93;103242.44;6211471;28;20237;-69
2024/01/27 12:01:39;;;;;;;10.82;3.22;;;;;;;15.48;76.09;103238.78;6209196;28;20233;-69
2024/01/27 12:05:00;;;;;;;8.98;3.03;;;;;;;14.21;84.70;103256.56;6203562;28;20262;-69
2024/01/27 12:08:21;;;;;;;12.27;4.10;;;;;;;14.58;86.56;103248.72;6204018;28;20241;-68
2024/01/27 12:11:42;;;;;;;8.73;3.42;;;;;;;16.97;75.98;103265.56;6200403;28;21049;-69
2024/01/27 12:15:05;;;;;;;7.43;3.00;;;;;;;15.01;80.23;103272.84;6208103;28;20316;-69
2024/01/27 12:18:26;;;;;;;9.05;3.58;;;;;;;12.48;92.41;103273.81;6182499;28;20238;-68
2024/01/27 12:21:50;;;;;;;7.18;3.55;;;;;;;13.43;91.08;103275.28;6200719;28;20225;-69
2024/01/27 12:25:14;;;;;;;9.15;3.53;;;;;;;12.40;98.50;103280.63;6203751;28;20237;-69
2024/01/27 12:28:37;;;;;;;10.43;3.38;;;;;;;16.37;84.94;103264.75;6205738;28;20788;-67
2024/01/27 12:31:59;;;;;;;8.77;3.25;;;;;;;14.19;80.80;103274.81;6194405;28;21745;-68
2024/01/27 12:35:21;;;;;;;8.85;3.03;;;;;;;13.38;92.06;103266.53;6181571;28;20231;-69
2024/01/27 12:38:42;;;;;;;8.95;3.58;;;;;;;13.72;87.55;103266.16;6219840;28;20232;-69
2024/01/27 12:42:03;;;;;;;14.43;4.50;;;;;;;15.99;80.74;103240.41;6199485;28;20261;-69
2024/01/27 12:45:24;;;;;;;11.80;4.13;;;;;;;16.02;78.59;103244.75;6168806;28;20903;-69
2024/01/27 12:48:46;;;;;;;7.65;3.72;;;;;;;16.64;74.66;103246.38;6210668;28;20315;-69
2024/01/27 12:52:08;;;;;;;10.20;4.10;;;;;;;12.94;86.42;103253.00;6200898;28;20232;-70
2024/01/27 12:55:29;;;;;;;9.27;3.85;;;;;;;12.63;95.21;103251.28;6212858;28;20678;-69
2024/01/27 12:58:50;;;;;;;10.70;3.92;;;;;;;13.10;97.65;103259.25;6174881;28;20233;-69
2024/01/27 13:02:11;;;;;;;9.70;3.60;;;;;;;11.19;100.00;103252.28;6181369;28;20236;-69
2024/01/27 13:05:34;;;;;;;8.87;4.33;;;;;;;11.98;100.00;103252.38;6177578;28;20382;-69
2024/01/27 13:08:55;;;;;;;12.13;4.00;;;;;;;11.22;100.00;103247.59;6181923;28;20234;-69
2024/01/27 13:12:15;;;;;;;9.53;3.80;;;;;;;11.59;100.00;103253.72;6185181;28;20233;-69
2024/01/27 13:15:36;;;;;;;8.07;3.83;;;;;;;11.80;100.00;103250.72;6183368;28;20233;-69
2024/01/27 13:18:57;;;;;;;8.13;3.80;;;;;;;11.66;100.00;103249.72;6184042;28;20228;-69
2024/01/27 13:22:20;;;;;;;7.87;3.93;;;;;;;11.62;100.00;103248.16;6192292;28;20324;-69
2024/01/27 13:25:41;;;;;;;12.10;4.37;;;;;;;11.56;100.00;103254.75;6191988;28;20512;-69
2024/01/27 13:29:02;;;;;;;13.50;4.00;;;;;;;12.59;100.00;103259.66;6203615;28;20221;-70
2024/01/27 13:32:23;;;;;;;11.43;4.43;;;;;;;12.63;100.00;103261.22;6197315;28;20225;-69
2024/01/27 13:35:46;;;;;;;9.73;4.40;;;;;;;12.15;100.00;103262.25;6194706;28;20605;-69
2024/01/27 13:39:09;;;;;;;10.80;4.23;;;;;;;11.39;100.00;103256.63;6203636;28;20233;-70
2024/01/27 13:42:30;;;;;;;11.40;4.10;;;;;;;11.10;100.00;103258.16;6201820;28;20505;-69
2024/01/27 13:45:51;;;;;;;8.77;3.63;;;;;;;11.03;100.00;103251.38;6191761;28;20232;-67
2024/01/27 13:49:12;;;;;;;8.77;3.80;;;;;;;12.72;100.00;103252.56;6189050;28;20229;-68
2024/01/27 13:52:32;;;;;;;6.80;3.43;;;;;;;12.50;100.00;103265.59;6179958;28;20225;-68
2024/01/27 13:55:55;;;;;;;10.53;4.03;;;;;;;11.53;100.00;103271.13;6183839;28;20267;-68
2024/01/27 13:59:15;;;;;;;17.17;4.23;;;;;;;11.04;100.00;103282.78;6192078;28;20320;-68
2024/01/27 14:02:36;;;;;;;6.13;4.30;;;;;;;10.30;100.00;103263.22;6185313;28;20248;-68
2024/01/27 14:05:57;;;;;;;14.53;5.17;;;;;;;10.69;100.00;103268.44;6184974;28;20249;-68
2024/01/27 14:09:19;;;;;;;7.13;3.43;;;;;;;10.34;100.00;103274.72;6190064;28;20229;-68
2024/01/27 14:12:41;;;;;;;12.47;3.77;;;;;;;9.20;100.00;103287.28;6175771;28;20537;-69
2024/01/27 14:16:02;;;;;;;13.40;4.77;;;;;;;9.33;100.00;103285.78;6167452;28;20861;-68
2024/01/27 14:19:23;;;;;;;7.30;5.03;;;;;;;9.86;100.00;103266.28;6195617;28;20753;-69
2024/01/27 14:22:44;;;;;;;10.70;4.17;;;;;;;9.65;100.00;103276.25;6186624;28;21284;-68
2024/01/27 14:26:07;;;;;;;14.23;5.47;;;;;;;9.08;100.00;103281.56;6189743;28;20499;-69
2024/01/27 14:29:30;;;;;;;10.90;4.80;;;;;;;9.00;100.00;103279.22;6188169;28;20229;-69
2024/01/27 14:32:51;;;;;;;6.83;4.40;;;;;;;8.86;100.00;103282.50;6171792;28;20233;-69
2024/01/27 14:36:12;;;;;;;12.27;5.73;;;;;;;8.82;100.00;103271.97;6179706;28;20936;-68
2024/01/27 14:39:33;;;;;;;10.10;4.90;;;;;;;9.11;100.00;103293.09;6178889;28;20229;-69
2024/01/27 14:42:56;;;;;;;9.23;5.13;;;;;;;8.77;100.00;103280.22;6166929;28;20263;-69
2024/01/27 14:46:19;;;;;;;15.17;5.40;;;;;;;9.01;100.00;103289.03;6168602;28;20238;-68
2024/01/27 14:49:40;;;;;;;8.33;5.27;;;;;;;8.80;100.00;103282.75;6183398;28;20240;-69
2024/01/27 14:53:02;;;;;;;8.67;4.73;;;;;;;8.77;100.00;103299.03;6174584;28;20534;-69
2024/01/27 14:56:23;;;;;;;8.50;4.87;;;;;;;8.68;100.00;103285.97;6174921;28;20230;-70
2024/01/27 14:59:44;;;;;;;10.63;6.13;;;;;;;8.44;100.00;103294.19;6194588;28;20233;-69
2024/01/27 15:03:06;;;;;;;10.83;5.57;;;;;;;8.46;100.00;103286.94;6186840;28;20228;-70
2024/01/27 15:06:27;;;;;;;14.43;4.23;;;;;;;8.47;100.00;103289.56;6170720;28;20264;-68
2024/01/27 15:09:48;;;;;;;10.30;4.20;;;;;;;8.31;100.00;103290.25;6185218;28;20272;-68
2024/01/27 15:13:10;;;;;;;18.13;6.53;;;;;;;8.15;100.00;103284.59;6164864;28;20587;-68
2024/01/27 15:16:32;;;;;;;10.30;5.47;;;;;;;8.12;100.00;103275.78;6159401;28;20256;-68
2024/01/27 15:19:55;;;;;;;10.77;5.57;;;;;;;7.91;100.00;103289.13;6163714;28;21097;-68
2024/01/27 15:23:16;;;;;;;7.63;4.17;;;;;;;7.80;100.00;103296.72;6166025;28;20245;-68
2024/01/27 15:26:37;;;;;;;10.50;4.50;;;;;;;7.87;100.00;103290.19;6152167;28;20233;-68
2024/01/27 15:29:58;;;;;;;11.07;6.47;;;;;;;7.75;100.00;103287.09;6173010;28;20237;-67